Time;durP1;ratioP1;P1;durP2;ratioP2;P2;SDS_P1;SDS_P2;PMS_P1;PMS_P2;Temp;Humidity;BMP_temperature;BMP_pressure;BME280_temperature;BME280_humidity;BME280_pressure;Samples;Min_cycle;Max_cycle;Signal;HPM_P1;HPM_P2
2023/03/22 00:02:29;;;;;;;;;;;;;;;29.35;65.57;100758.78;5042344;28;70551;-40
2023/03/22 00:05:00;;;;;;;;;;;;;;;29.38;65.51;100769.97;5041927;28;65660;-38
2023/03/22 00:07:30;;;;;;;;;;;;;;;29.39;65.87;100774.34;5042184;27;70630;-40
2023/03/22 00:10:00;;;;;;;;;;;;;;;29.44;65.76;100791.78;5039830;28;66110;-39
2023/03/22 00:12:30;;;;;;;;;;;;;;;29.44;65.40;100805.31;5045415;28;70481;-39
2023/03/22 00:15:00;;;;;;;;;;;;;;;29.46;65.86;100811.34;5049772;28;66285;-41
2023/03/22 00:17:31;;;;;;;;;;;;;;;29.47;66.15;100815.69;5052181;28;70382;-39
2023/03/22 00:20:05;;;;;;;;;;;;;;;29.51;66.76;100811.53;5053933;28;67769;-41
2023/03/22 00:22:35;;;;;;;;;;;;;;;29.52;67.44;100818.59;5043585;27;70292;-41
2023/03/22 00:25:05;;;;;;;;;;;;;;;29.53;67.33;100820.25;5039249;28;65272;-39
2023/03/22 00:27:36;;;;;;;;;;;;;;;29.57;67.04;100826.88;5044955;28;70018;-39
2023/03/22 00:30:07;;;;;;;;;;;;;;;29.59;67.38;100833.75;5044943;27;66025;-41
2023/03/22 00:32:38;;;;;;;;;;;;;;;29.59;67.42;100836.44;5060038;27;70029;-39
2023/03/22 00:35:09;;;;;;;;;;;;;;;29.60;67.25;100839.97;5033130;28;66135;-41
2023/03/22 00:37:39;;;;;;;;;;;;;;;29.62;67.15;100846.84;5045726;28;69294;-40
2023/03/22 00:40:11;;;;;;;;;;;;;;;29.61;67.49;100850.59;5036014;28;65965;-39
2023/03/22 00:42:41;;;;;;;;;;;;;;;29.65;67.68;100851.03;5051855;27;69330;-37
2023/03/22 00:45:12;;;;;;;;;;;;;;;29.67;67.28;100843.53;5074995;27;67016;-39
2023/03/22 00:47:43;;;;;;;;;;;;;;;29.65;67.34;100844.78;5052611;28;68937;-39
2023/03/22 00:50:13;;;;;;;;;;;;;;;29.61;65.62;100849.72;5049484;28;66790;-39
2023/03/22 00:52:43;;;;;;;;;;;;;;;29.61;64.27;100865.94;5081327;27;70087;-38
2023/03/22 00:55:14;;;;;;;;;;;;;;;29.63;63.99;100869.31;5044027;28;66434;-38
2023/03/22 00:57:46;;;;;;;;;;;;;;;29.67;64.11;100875.13;5071433;27;69236;-39
2023/03/22 01:00:16;;;;;;;;;;;;;;;29.68;63.71;100872.22;5048164;28;65817;-38
2023/03/22 01:02:46;;;;;;;;;;;;;;;29.71;63.18;100871.78;5051772;28;70087;-38
2023/03/22 01:05:20;;;;;;;;;;;;;;;29.73;62.80;100875.13;5040334;27;67058;-38
2023/03/22 01:07:53;;;;;;;;;;;;;;;29.75;62.50;100881.13;5046916;28;70545;-38
2023/03/22 01:10:24;;;;;;;;;;;;;;;29.26;62.66;100814.91;5051522;28;66106;-38
2023/03/22 01:12:55;;;;;;;;;;;;;;;29.79;62.05;100901.31;5044986;27;70212;-38
2023/03/22 01:15:26;;;;;;;;;;;;;;;29.81;61.82;100904.63;5039463;28;66528;-38
2023/03/22 01:17:56;;;;;;;;;;;;;;;29.82;61.80;100892.75;5038951;27;69787;-38
2023/03/22 01:20:27;;;;;;;;;;;;;;;29.84;61.43;100892.56;5046022;27;65866;-38
2023/03/22 01:22:58;;;;;;;;;;;;;;;29.87;61.74;100896.72;5062681;27;68962;-38
2023/03/22 01:25:29;;;;;;;;;;;;;;;29.89;61.30;100908.13;5079714;27;66141;-39
2023/03/22 01:28:01;;;;;;;;;;;;;;;29.91;61.25;100908.75;5046409;28;68925;-38
2023/03/22 01:30:31;;;;;;;;;;;;;;;29.93;60.89;100903.97;5048236;28;66379;-39
2023/03/22 01:33:01;;;;;;;;;;;;;;;29.94;61.28;100903.75;5048974;28;70844;-37
2023/03/22 01:35:33;;;;;;;;;;;;;;;29.96;60.65;100906.25;5069578;27;66429;-39
2023/03/22 01:38:04;;;;;;;;;;;;;;;29.98;60.41;100909.56;5050425;27;70389;-38
2023/03/22 01:40:41;;;;;;;;;;;;;;;30.00;60.76;100912.88;5055460;27;66131;-38
2023/03/22 01:43:15;;;;;;;;;;;;;;;30.01;60.86;100919.97;5089606;27;68365;-39
2023/03/22 01:45:47;;;;;;;;;;;;;;;30.03;60.25;100917.84;5049745;28;67150;-38
2023/03/22 01:48:25;;;;;;;;;;;;;;;30.05;60.00;100923.88;5083930;27;70327;-38
2023/03/22 01:51:02;;;;;;;;;;;;;;;29.81;60.16;100883.00;5052572;27;66993;-38
2023/03/22 01:53:47;;;;;;;;;;;;;;;30.09;60.41;100933.25;5056498;28;69855;-39
2023/03/22 01:56:22;;;;;;;;;;;;;;;30.11;59.70;100936.56;5055905;27;66918;-39
2023/03/22 01:58:54;;;;;;;;;;;;;;;30.13;60.24;100934.47;5044183;27;70278;-39
2023/03/22 02:01:33;;;;;;;;;;;;;;;30.14;59.49;100930.72;5049495;28;65961;-38
2023/03/22 02:04:14;;;;;;;;;;;;;;;30.17;60.04;100935.72;5044101;28;70350;-38
2023/03/22 02:06:45;;;;;;;;;;;;;;;30.19;59.36;100932.78;5054690;28;66631;-39
2023/03/22 02:09:20;;;;;;;;;;;;;;;30.20;59.87;100929.88;5053330;27;69790;-39
2023/03/22 02:11:57;;;;;;;;;;;;;;;30.22;59.28;100929.69;5058189;28;66526;-38
2023/03/22 02:14:35;;;;;;;;;;;;;;;30.24;59.38;100920.31;5060679;27;70345;-39
2023/03/22 02:17:53;;;;;;;;;;;;;;;30.27;59.12;100914.47;5042941;28;65846;-38
2023/03/22 02:20:27;;;;;;;;;;;;;;;30.29;59.51;100927.78;5060850;27;69968;-38
2023/03/22 02:22:59;;;;;;;;;;;;;;;30.32;59.20;100927.34;5075316;27;66682;-39
2023/03/22 02:25:32;;;;;;;;;;;;;;;30.33;59.34;100928.19;5059829;27;70368;-39
2023/03/22 02:28:05;;;;;;;;;;;;;;;30.34;59.51;100927.13;5043614;28;67079;-39
2023/03/22 02:30:58;;;;;;;;;;;;;;;30.37;59.20;100929.38;5043736;28;70757;-38
2023/03/22 02:33:47;;;;;;;;;;;;;;;30.39;59.20;100928.13;5059109;27;67045;-39
2023/03/22 02:36:33;;;;;;;;;;;;;;;30.43;59.24;100928.56;5067222;27;70310;-40
2023/03/22 02:39:10;;;;;;;;;;;;;;;30.44;58.96;100924.78;5055696;28;67202;-40
2023/03/22 02:41:59;;;;;;;;;;;;;;;30.46;58.76;100925.41;5044445;28;70312;-39
2023/03/22 02:44:38;;;;;;;;;;;;;;;30.48;58.69;100920.63;5045108;27;66880;-39
2023/03/22 02:47:19;;;;;;;;;;;;;;;30.49;58.84;100928.50;5042649;28;69808;-40
2023/03/22 02:49:54;;;;;;;;;;;;;;;30.53;58.65;100923.47;5045105;28;66681;-38
2023/03/22 02:52:32;;;;;;;;;;;;;;;30.56;58.43;100925.75;5041588;27;70217;-38
2023/03/22 02:55:22;;;;;;;;;;;;;;;30.34;58.77;100878.41;5045202;28;65713;-42
2023/03/22 02:58:03;;;;;;;;;;;;;;;30.59;58.67;100922.63;5044394;27;70163;-39
2023/03/22 03:00:37;;;;;;;;;;;;;;;30.61;58.38;100912.41;5041649;28;66960;-39
2023/03/22 03:03:17;;;;;;;;;;;;;;;30.65;58.45;100910.09;5043003;27;70524;-39
2023/03/22 03:05:50;;;;;;;;;;;;;;;30.66;58.47;100912.56;5043802;28;66456;-40
2023/03/22 03:08:20;;;;;;;;;;;;;;;30.69;58.24;100906.72;5043258;28;70168;-40
2023/03/22 03:10:52;;;;;;;;;;;;;;;30.71;58.35;100898.41;5077052;27;66453;-39
2023/03/22 03:13:22;;;;;;;;;;;;;;;30.72;57.94;100903.56;5039212;28;69740;-39
2023/03/22 03:15:57;;;;;;;;;;;;;;;30.75;58.01;100899.59;5073682;27;66469;-39
2023/03/22 03:18:33;;;;;;;;;;;;;;;30.77;58.11;100893.97;5039805;28;69705;-38
2023/03/22 03:21:09;;;;;;;;;;;;;;;30.80;58.07;100888.16;5075391;27;66411;-39
2023/03/22 03:23:51;;;;;;;;;;;;;;;30.82;57.95;100877.94;5072142;27;70021;-40
2023/03/22 03:26:27;;;;;;;;;;;;;;;30.85;57.82;100882.91;5040373;28;66902;-38
2023/03/22 03:29:19;;;;;;;;;;;;;;;30.87;57.87;100876.22;5045350;28;68346;-39
2023/03/22 03:31:54;;;;;;;;;;;;;;;30.88;57.24;100864.34;5075875;27;66639;-40
2023/03/22 03:34:31;;;;;;;;;;;;;;;30.92;57.61;100867.41;5042133;27;70346;-37
2023/03/22 03:37:14;;;;;;;;;;;;;;;30.93;57.24;100863.69;5042069;28;66762;-37
2023/03/22 03:39:53;;;;;;;;;;;;;;;30.97;57.46;100847.81;5046529;28;69662;-37
2023/03/22 03:42:25;;;;;;;;;;;;;;;30.99;57.14;100849.25;5049005;28;66989;-38
2023/03/22 03:44:57;;;;;;;;;;;;;;;31.02;57.15;100846.09;5041685;28;70291;-38
2023/03/22 03:47:28;;;;;;;;;;;;;;;31.04;57.28;100852.13;5058619;28;65908;-39
2023/03/22 03:49:58;;;;;;;;;;;;;;;31.04;56.91;100849.41;5051544;28;70369;-38
2023/03/22 03:52:28;;;;;;;;;;;;;;;31.08;57.00;100856.03;5039004;28;66194;-39
2023/03/22 03:54:58;;;;;;;;;;;;;;;30.88;56.70;100817.47;5053238;28;70641;-39
2023/03/22 03:57:32;;;;;;;;;;;;;;;31.13;56.34;100837.22;5092673;27;65121;-38
2023/03/22 04:00:04;;;;;;;;;;;;;;;31.15;56.50;100839.72;5068708;27;69086;-39
2023/03/22 04:02:41;;;;;;;;;;;;;;;31.19;56.43;100830.09;5041185;27;66337;-39
2023/03/22 04:05:25;;;;;;;;;;;;;;;31.22;56.60;100812.56;5039381;27;70091;-38
2023/03/22 04:07:56;;;;;;;;;;;;;;;31.23;56.29;100808.78;5053905;27;66231;-40
2023/03/22 04:10:26;;;;;;;;;;;;;;;31.26;56.52;100809.19;5072904;27;69935;-38
2023/03/22 04:12:57;;;;;;;;;;;;;;;31.27;56.13;100797.28;5056253;27;66874;-38
2023/03/22 04:15:27;;;;;;;;;;;;;;;31.31;56.29;100800.34;5039163;27;69830;-39
2023/03/22 04:18:01;;;;;;;;;;;;;;;31.32;55.96;100791.19;5072679;27;66409;-40
2023/03/22 04:20:33;;;;;;;;;;;;;;;31.34;55.64;100795.34;5041259;27;70509;-40
2023/03/22 04:23:04;;;;;;;;;;;;;;;31.38;56.23;100790.31;5045372;28;66563;-39
2023/03/22 04:25:36;;;;;;;;;;;;;;;31.39;55.89;100783.81;5045145;28;70418;-43
2023/03/22 04:28:12;;;;;;;;;;;;;;;31.42;55.48;100777.94;5046496;28;65706;-42
2023/03/22 04:30:44;;;;;;;;;;;;;;;31.44;55.29;100773.13;5058092;27;70286;-41
2023/03/22 04:33:21;;;;;;;;;;;;;;;31.46;55.54;100760.19;5045884;28;66854;-39
2023/03/22 04:36:18;;;;;;;;;;;;;;;31.49;55.42;100754.31;5039398;28;70638;-39
2023/03/22 04:39:11;;;;;;;;;;;;;;;31.51;55.19;100746.78;5046687;28;67556;-41
2023/03/22 04:41:47;;;;;;;;;;;;;;;31.52;55.22;100748.44;5049088;27;70709;-39
2023/03/22 04:44:18;;;;;;;;;;;;;;;31.55;55.11;100739.03;5054935;27;66716;-39
2023/03/22 04:46:52;;;;;;;;;;;;;;;31.56;55.26;100738.78;5037882;28;70707;-39
2023/03/22 04:49:23;;;;;;;;;;;;;;;31.59;55.26;100732.06;5049788;27;66019;-39
2023/03/22 04:51:53;;;;;;;;;;;;;;;31.61;54.94;100722.66;5052958;28;69557;-39
2023/03/22 04:54:37;;;;;;;;;;;;;;;31.62;54.88;100715.34;5038616;28;66821;-41
2023/03/22 04:57:08;;;;;;;;;;;;;;;31.65;55.03;100717.63;5078223;27;69182;-39
2023/03/22 04:59:42;;;;;;;;;;;;;;;31.67;54.89;100706.53;5057325;28;66150;-43
2023/03/22 05:02:12;;;;;;;;;;;;;;;31.69;54.69;100699.00;5054101;28;69964;-41
2023/03/22 05:04:43;;;;;;;;;;;;;;;31.70;54.82;100689.78;5047198;28;67741;-39
2023/03/22 05:07:27;;;;;;;;;;;;;;;31.72;54.87;100687.69;5052679;28;70403;-41
2023/03/22 05:09:59;;;;;;;;;;;;;;;31.75;54.84;100681.78;5050536;27;66976;-39
2023/03/22 05:12:30;;;;;;;;;;;;;;;31.75;54.66;100676.38;5078418;27;69097;-42
2023/03/22 05:15:15;;;;;;;;;;;;;;;31.78;54.91;100670.47;5074882;27;66406;-39
2023/03/22 05:17:46;;;;;;;;;;;;;;;31.80;54.87;100671.09;5059746;27;71304;-40
2023/03/22 05:20:16;;;;;;;;;;;;;;;31.82;54.55;100671.69;5076761;27;65883;-39
2023/03/22 05:22:56;;;;;;;;;;;;;;;31.85;54.75;100660.38;5075274;27;70913;-40
2023/03/22 05:25:27;;;;;;;;;;;;;;;31.86;54.50;100639.50;5060029;27;66434;-41
2023/03/22 05:28:01;;;;;;;;;;;;;;;31.88;54.86;100643.63;5051141;28;70916;-39
2023/03/22 05:30:43;;;;;;;;;;;;;;;31.91;54.80;100643.19;5061125;27;67062;-41
2023/03/22 05:33:36;;;;;;;;;;;;;;;31.93;54.84;100630.22;5042467;28;69841;-40
2023/03/22 05:36:10;;;;;;;;;;;;;;;31.95;54.77;100625.38;5047476;27;66417;-39
2023/03/22 05:38:56;;;;;;;;;;;;;;;31.98;54.43;100629.50;5042976;28;70644;-39
2023/03/22 05:41:26;;;;;;;;;;;;;;;32.00;54.50;100614.66;5043907;28;66077;-40
2023/03/22 05:43:57;;;;;;;;;;;;;;;32.01;54.47;100616.31;5078049;27;69496;-39
2023/03/22 05:46:27;;;;;;;;;;;;;;;32.02;54.16;100601.69;5057972;27;66670;-39
2023/03/22 05:49:25;;;;;;;;;;;;;;;32.07;54.50;100594.72;5060002;27;70423;-39
2023/03/22 05:51:56;;;;;;;;;;;;;;;32.09;54.30;100595.31;5043699;27;66100;-40
2023/03/22 05:54:38;;;;;;;;;;;;;;;32.11;54.27;100590.50;5041038;28;70211;-42
2023/03/22 05:57:09;;;;;;;;;;;;;;;32.13;54.46;100591.91;5075106;27;65716;-40
2023/03/22 05:59:39;;;;;;;;;;;;;;;32.16;54.25;100579.75;5044822;28;71082;-43
2023/03/22 06:02:16;;;;;;;;;;;;;;;32.18;54.17;100577.59;5044136;28;66615;-40
2023/03/22 06:04:48;;;;;;;;;;;;;;;32.22;53.96;100574.19;5076986;27;70905;-39
2023/03/22 06:07:18;;;;;;;;;;;;;;;32.25;53.82;100567.47;5060433;27;66354;-39
2023/03/22 06:09:53;;;;;;;;;;;;;;;32.28;54.03;100546.09;5046239;28;69751;-39
2023/03/22 06:12:27;;;;;;;;;;;;;;;32.31;54.03;100549.41;5077627;27;65823;-39
2023/03/22 06:15:10;;;;;;;;;;;;;;;32.34;53.96;100549.75;5044382;28;69394;-42
2023/03/22 06:18:06;;;;;;;;;;;;;;;32.36;53.91;100547.63;5043535;28;65826;-39
2023/03/22 06:20:41;;;;;;;;;;;;;;;32.40;53.80;100543.38;5058415;28;71226;-39
2023/03/22 06:23:20;;;;;;;;;;;;;;;32.44;53.71;100539.13;5060595;27;65538;-40
2023/03/22 06:25:50;;;;;;;;;;;;;;;32.46;53.70;100534.31;5053386;28;70057;-39
2023/03/22 06:28:20;;;;;;;;;;;;;;;32.50;53.65;100537.38;5050728;28;66831;-41
2023/03/22 06:30:54;;;;;;;;;;;;;;;32.54;53.60;100532.28;5044471;28;70185;-40
2023/03/22 06:33:35;;;;;;;;;;;;;;;32.57;53.36;100537.22;5063728;27;67082;-40
2023/03/22 06:36:17;;;;;;;;;;;;;;;32.61;53.46;100532.97;5058829;27;70702;-39
2023/03/22 06:39:25;;;;;;;;;;;;;;;32.65;53.50;100531.41;5049994;28;66362;-39
2023/03/22 06:41:56;;;;;;;;;;;;;;;32.68;53.24;100522.78;5053393;28;70659;-40
2023/03/22 06:44:26;;;;;;;;;;;;;;;32.72;53.17;100519.34;5058095;27;66048;-40
2023/03/22 06:47:13;;;;;;;;;;;;;;;32.76;53.11;100514.25;5052505;28;70300;-39
2023/03/22 06:49:52;;;;;;;;;;;;;;;32.81;53.03;100508.94;5046768;28;65585;-41
2023/03/22 06:52:58;;;;;;;;;;;;;;;32.86;52.92;100514.47;5046135;27;70064;-41
2023/03/22 06:55:33;;;;;;;;;;;;;;;32.90;52.98;100510.22;5074965;27;65996;-38
2023/03/22 06:58:21;;;;;;;;;;;;;;;32.94;52.95;100500.50;5043616;28;69901;-40
2023/03/22 07:00:52;;;;;;;;;;;;;;;32.99;52.64;100502.50;5045369;28;65822;-39
2023/03/22 07:03:23;;;;;;;;;;;;;;;33.04;52.78;100504.47;5051020;27;70350;-39
2023/03/22 07:06:04;;;;;;;;;;;;;;;33.08;52.79;100492.06;5080364;27;66422;-43
2023/03/22 07:08:37;;;;;;;;;;;;;;;33.12;52.80;100485.06;5079359;27;70322;-42
2023/03/22 07:11:09;;;;;;;;;;;;;;;33.17;52.42;100487.88;5074840;27;67008;-40
2023/03/22 07:13:39;;;;;;;;;;;;;;;33.22;52.44;100485.25;5053459;27;69231;-42
2023/03/22 07:16:14;;;;;;;;;;;;;;;33.28;52.39;100488.88;5043534;28;66509;-38
2023/03/22 07:18:57;;;;;;;;;;;;;;;33.31;52.15;100478.31;5041286;28;70200;-39
2023/03/22 07:21:28;;;;;;;;;;;;;;;33.36;52.15;100469.44;5081732;27;66586;-39
2023/03/22 07:24:06;;;;;;;;;;;;;;;33.42;52.08;100470.34;5085311;27;69393;-39
2023/03/22 07:26:37;;;;;;;;;;;;;;;33.48;51.94;100469.34;5042629;28;66593;-41
2023/03/22 07:29:09;;;;;;;;;;;;;;;33.53;51.79;100461.31;5046040;28;70831;-39
2023/03/22 07:31:41;;;;;;;;;;;;;;;33.56;51.97;100474.41;5051044;28;66132;-40
2023/03/22 07:34:16;;;;;;;;;;;;;;;33.60;51.85;100456.53;5046496;28;69972;-40
2023/03/22 07:37:03;;;;;;;;;;;;;;;33.67;51.69;100462.59;5059410;27;66140;-39
2023/03/22 07:39:34;;;;;;;;;;;;;;;33.70;51.39;100464.81;5054038;27;70216;-40
2023/03/22 07:42:04;;;;;;;;;;;;;;;33.76;51.60;100457.56;5043529;28;66175;-40
2023/03/22 07:44:53;;;;;;;;;;;;;;;33.84;51.23;100464.47;5045563;28;70132;-40
2023/03/22 07:47:24;;;;;;;;;;;;;;;33.89;51.37;100456.41;5041849;28;65617;-40
2023/03/22 07:50:28;;;;;;;;;;;;;;;33.95;51.04;100449.94;5040011;28;70671;-40
2023/03/22 07:53:02;;;;;;;;;;;;;;;34.00;50.93;100450.00;5038678;27;65999;-41
2023/03/22 07:55:33;;;;;;;;;;;;;;;34.05;50.57;100452.84;5059208;27;69334;-41
2023/03/22 07:58:03;;;;;;;;;;;;;;;34.11;50.86;100446.38;5045263;27;66706;-40
2023/03/22 08:00:33;;;;;;;;;;;;;;;34.15;50.49;100447.50;5047857;28;70263;-40
2023/03/22 08:03:26;;;;;;;;;;;;;;;34.22;50.46;100445.44;5042472;28;67063;-39
2023/03/22 08:06:06;;;;;;;;;;;;;;;34.26;50.37;100446.56;5056342;27;70064;-39
2023/03/22 08:08:38;;;;;;;;;;;;;;;34.34;49.88;100445.28;5055159;27;67102;-38
2023/03/22 08:11:08;;;;;;;;;;;;;;;34.40;50.00;100447.00;5050989;28;69834;-39
2023/03/22 08:13:38;;;;;;;;;;;;;;;34.47;49.85;100452.25;5050184;27;66380;-40
2023/03/22 08:16:10;;;;;;;;;;;;;;;34.52;49.44;100449.59;5038816;28;69573;-39
2023/03/22 08:18:41;;;;;;;;;;;;;;;34.57;49.58;100449.66;5071142;27;66764;-40
2023/03/22 08:21:14;;;;;;;;;;;;;;;34.63;49.15;100448.66;5041088;28;70455;-40
2023/03/22 08:23:50;;;;;;;;;;;;;;;34.69;49.30;100444.91;5034441;28;66940;-40
2023/03/22 08:26:48;;;;;;;;;;;;;;;34.77;48.72;100442.78;5067720;27;70236;-39
2023/03/22 08:29:46;;;;;;;;;;;;;;;34.83;48.44;100439.03;5039027;28;65760;-40
2023/03/22 08:32:17;;;;;;;;;;;;;;;34.88;48.39;100447.25;5040026;27;70752;-39
2023/03/22 08:34:47;;;;;;;;;;;;;;;34.93;48.27;100444.56;5041206;28;66592;-40
2023/03/22 08:37:19;;;;;;;;;;;;;;;34.98;47.99;100444.63;5059364;27;69491;-39
2023/03/22 08:39:49;;;;;;;;;;;;;;;35.04;47.89;100449.03;5075440;27;65917;-40
2023/03/22 08:42:24;;;;;;;;;;;;;;;35.09;47.68;100446.38;5064985;27;69256;-41
2023/03/22 08:44:54;;;;;;;;;;;;;;;35.14;47.92;100442.88;5049350;28;66309;-41
2023/03/22 08:47:28;;;;;;;;;;;;;;;35.19;47.85;100453.00;5043003;27;70715;-39
2023/03/22 08:50:02;;;;;;;;;;;;;;;35.25;47.71;100435.63;5029785;28;66855;-39
2023/03/22 08:52:50;;;;;;;;;;;;;;;35.31;47.42;100437.28;5043939;28;69502;-38
2023/03/22 08:55:46;;;;;;;;;;;;;;;35.35;47.25;100435.66;5035984;28;59521;-39
2023/03/22 08:58:32;;;;;;;;;;;;;;;35.40;46.94;100433.00;5051681;28;69569;-39
2023/03/22 09:01:27;;;;;;;;;;;;;;;35.46;46.44;100431.13;5055267;27;66879;-40
2023/03/22 09:04:03;;;;;;;;;;;;;;;35.52;46.84;100435.50;5054839;27;68876;-38
2023/03/22 09:06:33;;;;;;;;;;;;;;;35.57;46.70;100439.13;5050081;28;67133;-41
2023/03/22 09:09:04;;;;;;;;;;;;;;;35.62;46.42;100437.53;5071412;27;70965;-40
2023/03/22 09:11:36;;;;;;;;;;;;;;;35.67;45.92;100437.56;5040579;28;66294;-40
2023/03/22 09:14:07;;;;;;;;;;;;;;;35.71;46.34;100422.31;5041308;28;70130;-40
2023/03/22 09:16:37;;;;;;;;;;;;;;;35.76;46.02;100436.78;5036304;28;66518;-40
2023/03/22 09:19:08;;;;;;;;;;;;;;;35.80;45.57;100442.53;5045528;28;70455;-40
2023/03/22 09:21:40;;;;;;;;;;;;;;;35.84;46.01;100449.13;5058821;27;66301;-40
2023/03/22 09:24:18;;;;;;;;;;;;;;;35.87;45.81;100437.66;5047244;28;69927;-41
2023/03/22 09:26:53;;;;;;;;;;;;;;;35.90;45.49;100431.69;5077100;27;65861;-40
2023/03/22 09:29:24;;;;;;;;;;;;;;;35.92;45.80;100451.34;5077886;27;70613;-43
2023/03/22 09:31:54;;;;;;;;;;;;;;;35.95;45.19;100456.28;5049065;27;66229;-40
2023/03/22 09:34:32;;;;;;;;;;;;;;;35.96;44.99;100457.91;5053463;28;70747;-40
2023/03/22 09:37:03;;;;;;;;;;;;;;;35.99;45.07;100457.38;5044567;28;65567;-46
2023/03/22 09:39:43;;;;;;;;;;;;;;;35.99;45.36;100462.03;5047283;28;69855;-39
2023/03/22 09:42:23;;;;;;;;;;;;;;;35.99;45.54;100451.91;5079798;27;66081;-39
2023/03/22 09:44:54;;;;;;;;;;;;;;;36.01;45.00;100459.84;5073205;27;70554;-40
2023/03/22 09:47:33;;;;;;;;;;;;;;;36.03;45.39;100458.50;5075890;27;66625;-40
2023/03/22 09:50:15;;;;;;;;;;;;;;;36.02;44.94;100456.88;5041064;27;69331;-40
2023/03/22 09:52:45;;;;;;;;;;;;;;;36.02;44.95;100451.41;5041272;28;67045;-41
2023/03/22 09:55:39;;;;;;;;;;;;;;;36.04;45.44;100470.25;5044983;27;70788;-41
2023/03/22 09:58:32;;;;;;;;;;;;;;;36.05;45.45;100469.16;5046482;28;67165;-39
2023/03/22 10:01:05;;;;;;;;;;;;;;;36.08;44.98;100476.00;5045449;27;70090;-39
2023/03/22 10:03:38;;;;;;;;;;;;;;;36.06;45.38;100473.56;5078528;27;66088;-39
2023/03/22 10:06:17;;;;;;;;;;;;;;;36.09;45.15;100480.41;5042002;28;70279;-39
2023/03/22 10:08:58;;;;;;;;;;;;;;;36.08;44.85;100490.50;5043381;28;65758;-44
2023/03/22 10:11:47;;;;;;;;;;;;;;;36.07;45.45;100488.03;5048276;28;70747;-41
2023/03/22 10:14:17;;;;;;;;;;;;;;;35.97;45.72;100497.78;5044827;28;65437;-41
2023/03/22 10:16:49;;;;;;;;;;;;;;;35.57;45.57;100509.25;5043305;28;70116;-39
2023/03/22 10:19:27;;;;;;;;;;;;;;;35.31;46.87;100510.91;5059997;27;66275;-41
2023/03/22 10:22:00;;;;;;;;;;;;;;;35.12;47.07;100508.56;5047346;28;70159;-39
2023/03/22 10:24:35;;;;;;;;;;;;;;;34.99;47.81;100514.38;5044084;28;66581;-40
2023/03/22 10:27:13;;;;;;;;;;;;;;;34.87;48.51;100519.19;5047039;28;69157;-39
2023/03/22 10:29:53;;;;;;;;;;;;;;;34.84;48.34;100522.41;5054672;28;66469;-38
2023/03/22 10:32:26;;;;;;;;;;;;;;;34.75;49.00;100523.97;5055783;27;69886;-39
2023/03/22 10:34:57;;;;;;;;;;;;;;;34.66;48.79;100520.88;5053116;28;65146;-39
2023/03/22 10:37:35;;;;;;;;;;;;;;;34.61;49.11;100520.81;5052438;28;70616;-40
2023/03/22 10:40:10;;;;;;;;;;;;;;;34.60;49.51;100524.59;5043646;28;66278;-38
2023/03/22 10:42:42;;;;;;;;;;;;;;;34.54;49.44;100529.13;5056071;28;70250;-39
2023/03/22 10:45:14;;;;;;;;;;;;;;;34.49;49.69;100520.88;5046183;28;66743;-40
2023/03/22 10:48:16;;;;;;;;;;;;;;;34.44;50.08;100523.56;5053828;28;70270;-39
2023/03/22 10:50:47;;;;;;;;;;;;;;;34.41;50.25;100518.63;5056415;28;67092;-42
2023/03/22 10:53:18;;;;;;;;;;;;;;;34.36;51.02;100516.66;5077106;27;70441;-38
2023/03/22 10:55:49;;;;;;;;;;;;;;;34.35;51.82;100525.06;5049439;28;66305;-40
2023/03/22 10:58:21;;;;;;;;;;;;;;;34.31;52.10;100529.38;5046119;28;69516;-40
2023/03/22 11:00:52;;;;;;;;;;;;;;;34.27;52.35;100531.78;5046679;28;66959;-39
2023/03/22 11:03:38;;;;;;;;;;;;;;;34.22;52.67;100526.28;5043086;27;70301;-40
2023/03/22 11:06:10;;;;;;;;;;;;;;;34.19;53.14;100524.88;5041781;28;67343;-41
2023/03/22 11:08:47;;;;;;;;;;;;;;;34.41;52.26;100529.53;5044740;28;69853;-38
2023/03/22 11:11:22;;;;;;;;;;;;;;;34.62;52.04;100528.72;5050367;28;65433;-40
2023/03/22 11:13:55;;;;;;;;;;;;;;;34.73;51.64;100537.84;5043931;27;70562;-40
2023/03/22 11:16:25;;;;;;;;;;;;;;;34.82;51.24;100547.19;5050114;28;65951;-41
2023/03/22 11:18:56;;;;;;;;;;;;;;;34.87;51.27;100554.59;5045944;27;70109;-40
2023/03/22 11:21:32;;;;;;;;;;;;;;;34.91;50.86;100555.75;5047837;28;65868;-39
2023/03/22 11:24:04;;;;;;;;;;;;;;;34.92;50.75;100568.28;5039187;27;69382;-39
2023/03/22 11:26:36;;;;;;;;;;;;;;;34.92;50.99;100566.38;5045735;28;66120;-38
2023/03/22 11:29:15;;;;;;;;;;;;;;;34.92;51.03;100568.28;5041048;27;69744;-40
2023/03/22 11:31:48;;;;;;;;;;;;;;;34.92;50.98;100571.03;5046724;28;66520;-40
2023/03/22 11:34:25;;;;;;;;;;;;;;;34.92;50.82;100574.56;5050630;28;70298;-41
2023/03/22 11:36:58;;;;;;;;;;;;;;;34.91;50.68;100580.28;5044833;28;65573;-39
2023/03/22 11:39:28;;;;;;;;;;;;;;;34.88;51.50;100580.78;5048830;28;69159;-38
2023/03/22 11:42:02;;;;;;;;;;;;;;;34.87;51.07;100582.69;5056892;28;65397;-40
2023/03/22 11:44:34;;;;;;;;;;;;;;;34.66;52.55;100581.63;5053306;27;69961;-44
2023/03/22 11:47:07;;;;;;;;;;;;;;;34.36;54.01;100573.84;5042931;28;66916;-37
2023/03/22 11:49:42;;;;;;;;;;;;;;;34.17;55.15;100580.66;5043837;28;70014;-39
2023/03/22 11:52:16;;;;;;;;;;;;;;;34.00;55.60;100577.91;5042990;28;66874;-41
2023/03/22 11:54:48;;;;;;;;;;;;;;;33.85;55.91;100594.00;5039130;28;70041;-41
2023/03/22 11:57:24;;;;;;;;;;;;;;;33.70;56.68;100595.38;5037280;28;66057;-41
2023/03/22 12:00:10;;;;;;;;;;;;;;;33.66;57.07;100610.56;5050077;28;70069;-38
2023/03/22 12:02:47;;;;;;;;;;;;;;;33.56;57.39;100610.38;5040461;27;66014;-39
2023/03/22 12:05:18;;;;;;;;;;;;;;;33.50;58.03;100620.31;5023338;28;70237;-40
2023/03/22 12:08:09;;;;;;;;;;;;;;;33.42;58.26;100623.44;5042322;28;65833;-38
2023/03/22 12:10:41;;;;;;;;;;;;;;;33.37;58.24;100616.00;5050974;27;70316;-40
2023/03/22 12:13:11;;;;;;;;;;;;;;;33.32;58.39;100617.78;5044015;27;67361;-40
2023/03/22 12:15:47;;;;;;;;;;;;;;;33.29;58.55;100621.84;5045775;28;70008;-38
2023/03/22 12:18:26;;;;;;;;;;;;;;;33.11;58.44;100624.75;5047559;28;65614;-37
2023/03/22 12:21:00;;;;;;;;;;;;;;;32.98;58.51;100624.97;5037433;28;70292;-37
2023/03/22 12:23:33;;;;;;;;;;;;;;;32.87;59.33;100624.78;5051295;28;67567;-38
2023/03/22 12:26:13;;;;;;;;;;;;;;;32.87;59.64;100627.47;5048004;27;70199;-39
2023/03/22 12:28:53;;;;;;;;;;;;;;;32.91;60.03;100633.28;5044290;28;67033;-39
2023/03/22 12:31:26;;;;;;;;;;;;;;;32.92;60.11;100637.63;5042014;27;70401;-39
2023/03/22 12:33:59;;;;;;;;;;;;;;;32.92;60.62;100640.34;5051359;28;65734;-40
2023/03/22 12:36:49;;;;;;;;;;;;;;;32.89;60.81;100644.38;5044149;28;70200;-38
2023/03/22 12:39:29;;;;;;;;;;;;;;;32.75;61.17;100651.13;5042313;28;66098;-40
2023/03/22 12:42:04;;;;;;;;;;;;;;;32.61;62.18;100655.19;5043919;28;69972;-39
2023/03/22 12:44:40;;;;;;;;;;;;;;;32.57;62.71;100657.56;5045877;28;66467;-36
2023/03/22 12:47:17;;;;;;;;;;;;;;;32.55;62.91;100667.00;5047494;28;70335;-36
2023/03/22 12:49:58;;;;;;;;;;;;;;;32.57;63.07;100665.69;5046222;28;66739;-38
2023/03/22 12:52:35;;;;;;;;;;;;;;;32.49;63.30;100666.88;5043105;28;70301;-41
2023/03/22 12:55:21;;;;;;;;;;;;;;;32.43;63.28;100669.66;5048409;28;66653;-42
2023/03/22 12:57:53;;;;;;;;;;;;;;;32.38;63.37;100673.09;5045921;28;70740;-37
2023/03/22 13:00:28;;;;;;;;;;;;;;;32.29;63.58;100679.94;5044009;28;66400;-42
2023/03/22 13:03:01;;;;;;;;;;;;;;;32.23;64.15;100679.00;5047190;28;68846;-40
2023/03/22 13:05:33;;;;;;;;;;;;;;;32.21;64.25;100681.13;5040647;28;65660;-38
2023/03/22 13:08:04;;;;;;;;;;;;;;;32.16;64.55;100682.88;5039220;27;69523;-40
2023/03/22 13:10:38;;;;;;;;;;;;;;;32.12;64.77;100687.09;5037638;28;66695;-38
2023/03/22 13:13:15;;;;;;;;;;;;;;;32.10;64.95;100683.81;5047538;28;70265;-36
2023/03/22 13:16:01;;;;;;;;;;;;;;;32.09;65.75;100688.38;5045663;28;65760;-38
2023/03/22 13:18:31;;;;;;;;;;;;;;;32.09;65.62;100698.41;5037837;28;70278;-39
2023/03/22 13:21:21;;;;;;;;;;;;;;;32.03;65.55;100703.72;5048324;28;65805;-40